^^
Datos históricos de la estación: Murcia-Puente Tocinos
Diario Informe para Marzo 30, 2019 Unidades:  Ingés    Métrico   Ambas
Diario Semanal Mensual Anual
  Máxima: Mínima: Promedio:
Temperatura: 94.8 °F 72.3 °F 83.8 °F
Punto de rocio: 60.6 °F 45 °F 54.7 °F
Humedad: 57% 18.6% 39%
Velocidad viento: 10.7mph 0mph 4.8mph
Racha viento: 20mph - -
Viento- - ESE
Presión: 30 in 29.9 in -
Precipitación: 0 in    
 
 
Tabla de datos para Marzo 30, 2019
Hora Temperatura Punto de rocio Presión Viento Velocidad viento Racha viento Humedad Intensidad lluvia(por hora) Nubes
00:04 80.1 °F 59.2 °F 29.9 in NE 2.4 mph 5 mph 49% 0 in
00:09 80.1 °F 59.2 °F 29.9 in NE 2.4 mph 5 mph 49% 0 in
00:14 79.9 °F 59.2 °F 29.9 in NE 2.4 mph 3.5 mph 49.2% 0 in
00:19 79.7 °F 59.4 °F 29.9 in NNE 2.2 mph 3 mph 50% 0 in
00:24 79.5 °F 59.2 °F 29.9 in NNE 1.4 mph 4 mph 50% 0 in
00:29 79.3 °F 59.2 °F 29.9 in NNE 1.4 mph 5 mph 50% 0 in
00:34 79.3 °F 59.2 °F 30 in NNE 1.4 mph 5 mph 50% 0 in
00:39 79.3 °F 59 °F 30 in NNE 1.4 mph 3.5 mph 50% 0 in
00:44 79.2 °F 58.8 °F 30 in NNE 1.4 mph 5.2 mph 50% 0 in
00:49 79.2 °F 59.2 °F 30 in NNE 1.7 mph 5.8 mph 50.3% 0 in
00:54 79 °F 59.2 °F 30 in NNE 2.9 mph 6 mph 51% 0 in
00:59 78.6 °F 59.2 °F 30 in NNE 2.7 mph 5 mph 51.2% 0 in
01:04 78.4 °F 59.4 °F 30 in North 2 mph 5.9 mph 51.9% 0 in
01:09 78.3 °F 59.2 °F 30 in North 2.2 mph 6 mph 52% 0 in
01:14 78.1 °F 59 °F 30 in North 2.9 mph 5 mph 52% 0 in
01:19 78.1 °F 59 °F 30 in NE 2.6 mph 5 mph 52% 0 in
01:24 78.1 °F 59 °F 30 in ENE 1.8 mph 5 mph 52.2% 0 in
01:29 77.7 °F 59.2 °F 30 in Este 1.9 mph 5 mph 53% 0 in
01:34 77.5 °F 59.2 °F 30 in Este 2 mph 3.6 mph 53% 0 in
01:39 77.4 °F 59.2 °F 30 in Este 1.9 mph 4.6 mph 53.3% 0 in
01:44 77.2 °F 59.2 °F 30 in Este 1.8 mph 5 mph 54% 0 in
01:49 77.2 °F 59.2 °F 30 in NE 1.8 mph 4.7 mph 54% 0 in
01:54 77 °F 59 °F 30 in ENE 1.8 mph 5 mph 54% 0 in
01:59 76.8 °F 59 °F 30 in Este 1.9 mph 5 mph 54.1% 0 in
02:04 76.6 °F 59.4 °F 30 in Este 2 mph 4 mph 54.9% 0 in
02:09 76.6 °F 59.4 °F 30 in Este 2 mph 4 mph 55% 0 in
02:14 76.6 °F 59.4 °F 30 in ESE 2 mph 4 mph 55% 0 in
02:19 76.6 °F 59.4 °F 30 in SSE 2 mph 5 mph 55% 0 in
02:24 76.6 °F 59.2 °F 30 in SSE 2 mph 5 mph 55% 0 in
02:29 76.6 °F 59.4 °F 30 in SSE 1.9 mph 3 mph 55% 0 in
02:34 76.6 °F 59.4 °F 30 in SSE 1.4 mph 2.9 mph 55% 0 in
02:39 76.6 °F 59.4 °F 30 in SSE 1.4 mph 3 mph 55% 0 in
02:44 76.5 °F 59.2 °F 30 in SSE 1.4 mph 3 mph 55% 0 in
02:49 76.5 °F 59.2 °F 30 in SE 1.1 mph 3.6 mph 55% 0 in
02:54 76.5 °F 59.2 °F 30 in Calm   4 mph 55% 0 in
02:59 76.5 °F 59.4 °F 30 in ESE 0.4 mph 3 mph 55.4% 0 in
03:04 76.5 °F 59.4 °F 30 in NE 1.4 mph 4.6 mph 55.8% 0 in
03:09 76.1 °F 59.4 °F 30 in NNE 1.5 mph 5 mph 56% 0 in
03:14 75.9 °F 59.4 °F 30 in NNE 1.8 mph 2 mph 56.4% 0 in
03:19 75.7 °F 59.4 °F 30 in NNE 1.4 mph   57% 0 in
03:24 75.7 °F 59.2 °F 30 in Calm     56.7% 0 in
03:29 75.7 °F 58.8 °F 30 in Calm   2.9 mph 55.8% 0 in
03:34 75.6 °F 58.1 °F 30 in Calm   3.1 mph 54.8% 0 in
03:39 75.6 °F 57 °F 29.9 in ESE 0.3 mph 4 mph 52.6% 0 in
03:44 75.7 °F 56.5 °F 29.9 in ESE 1.4 mph 5 mph 51.3% 0 in
03:49 75.7 °F 56.3 °F 29.9 in ESE 1.4 mph 3 mph 51% 0 in
03:54 75.7 °F 56.7 °F 29.9 in ESE 1.4 mph 2.3 mph 51.6% 0 in
03:59 75.7 °F 56.8 °F 29.9 in ESE 1.2 mph 2.9 mph 52.1% 0 in
04:04 75.6 °F 56.3 °F 29.9 in Calm   3.6 mph 51.3% 0 in
04:09 75.4 °F 55.9 °F 29.9 in SSE 0.7 mph 5.2 mph 51% 0 in
04:14 75.2 °F 55.8 °F 29.9 in Sur 2.9 mph 5.2 mph 51% 0 in
04:19 75 °F 55.9 °F 29.9 in Sur 2.9 mph 5.2 mph 51.5% 0 in
04:24 75 °F 56.3 °F 29.9 in SSO 3.1 mph 5.9 mph 52% 0 in
04:29 75.2 °F 56.5 °F 29.9 in SSO 3.1 mph 6 mph 52% 0 in
04:34 75.4 °F 56.5 °F 29.9 in SO 3.1 mph 5 mph 52% 0 in
04:39 75.4 °F 56.5 °F 29.9 in SO 2.9 mph 5 mph 52% 0 in
04:44 75.4 °F 56.1 °F 29.9 in SO 2 mph 5.9 mph 51.3% 0 in
04:49 75.4 °F 56.1 °F 29.9 in SO 2.1 mph 6 mph 51.3% 0 in
04:54 75.4 °F 55.9 °F 29.9 in Sur 2.4 mph 6.9 mph 51% 0 in
04:59 75.2 °F 55.8 °F 29.9 in SSO 2.7 mph 7 mph 50.9% 0 in
05:04 74.8 °F 55.6 °F 29.9 in SSO 3.6 mph 6 mph 51% 0 in
05:09 74.7 °F 55.8 °F 29.9 in SO 3.4 mph 6 mph 51.8% 0 in
05:14 74.7 °F 55.9 °F 29.9 in SO 2.9 mph 4 mph 52% 0 in
05:19 74.7 °F 55.4 °F 29.9 in SSO 2.6 mph 4 mph 51.2% 0 in
05:24 74.7 °F 55.2 °F 29.9 in Sur 1.8 mph 4.7 mph 51% 0 in
05:29 74.7 °F 55.2 °F 29.9 in SSO 1.9 mph 5.8 mph 51.1% 0 in
05:34 74.5 °F 55.6 °F 29.9 in SO 2.4 mph 6 mph 51.8% 0 in
05:39 74.3 °F 55.6 °F 29.9 in SO 2.5 mph 6.9 mph 52% 0 in
05:44 74.1 °F 55.4 °F 29.9 in SO 3.1 mph 8.1 mph 52% 0 in
05:49 73.9 °F 55.2 °F 29.9 in OSO 3.5 mph 8 mph 52% 0 in
05:54 73.9 °F 55.2 °F 29.9 in OSO 4.7 mph 7 mph 52% 0 in
05:59 73.8 °F 55 °F 29.9 in OSO 4.3 mph 9.2 mph 52% 0 in
06:04 73.8 °F 55 °F 29.9 in SO 3.6 mph 9 mph 52% 0 in
06:09 73.6 °F 54.9 °F 29.9 in SO 3.9 mph 8.1 mph 52% 0 in
06:14 73.6 °F 54.9 °F 29.9 in SO 4.7 mph 8.7 mph 52% 0 in
06:19 73.6 °F 54.9 °F 29.9 in SO 4.8 mph 9.2 mph 52% 0 in
06:24 73.4 °F 54.7 °F 29.9 in OSO 5.2 mph 9.2 mph 52% 0 in
06:29 73.2 °F 54.5 °F 29.9 in OSO 5.1 mph 9 mph 52.1% 0 in
06:34 73 °F 54.9 °F 29.9 in OSO 4.7 mph 7 mph 53% 0 in
06:39 72.9 °F 54.7 °F 29.9 in OSO 4.5 mph 6 mph 53% 0 in
06:44 72.9 °F 55 °F 29.9 in Oeste 3.6 mph 6 mph 53.7% 0 in
06:49 72.9 °F 55.2 °F 29.9 in Oeste 3.4 mph 5 mph 54% 0 in
06:54 72.9 °F 54.9 °F 29.9 in SO 2.9 mph 5.8 mph 53.3% 0 in
06:59 72.9 °F 54 °F 29.9 in SSO 3.1 mph 7.4 mph 51.6% 0 in
07:04 72.7 °F 53.6 °F 29.9 in SSO 3.6 mph 9.2 mph 51% 0 in
07:09 72.7 °F 53.4 °F 29.9 in SSO 3.9 mph 9.2 mph 51% 0 in
07:14 72.7 °F 53.4 °F 29.9 in SO 4.7 mph 9 mph 51% 0 in
07:19 72.7 °F 53.2 °F 29.9 in SO 4.5 mph 7 mph 50.5% 0 in
07:24 72.7 °F 53.1 °F 29.9 in OSO 4 mph 6 mph 50% 0 in
07:29 72.9 °F 53.1 °F 29.9 in OSO 4 mph 6.9 mph 50% 0 in
07:34 72.9 °F 53.1 °F 29.9 in OSO 4 mph 7 mph 50% 0 in
07:39 72.7 °F 53.1 °F 29.9 in OSO 3.9 mph 6.2 mph 50% 0 in
07:44 72.5 °F 52.9 °F 29.9 in Oeste 3.6 mph 7.4 mph 50% 0 in
07:49 72.3 °F 53.1 °F 29.9 in Oeste 3.7 mph 7 mph 50.6% 0 in
07:54 72.3 °F 52.7 °F 29.9 in Oeste 4.3 mph 6 mph 50.2% 0 in
07:59 72.5 °F 52.7 °F 29.9 in Oeste 4.1 mph 6.9 mph 50% 0 in
08:04 72.7 °F 52.7 °F 30 in OSO 3.6 mph 7 mph 49.6% 0 in
08:09 72.9 °F 52.5 °F 30 in Oeste 3.6 mph 6 mph 49% 0 in
08:14 72.9 °F 52.7 °F 30 in Oeste 3.6 mph 6 mph 49% 0 in
08:19 73.2 °F 52.7 °F 30 in Oeste 3.2 mph 5 mph 48.5% 0 in
08:24 73.8 °F 52.5 °F 30 in OSO 2 mph 5 mph 47.5% 0 in
08:29 73.9 °F 52.5 °F 30 in Oeste 2.2 mph 5 mph 47% 0 in
08:34 74.3 °F 52.7 °F 30 in Oeste 2.9 mph 5.4 mph 47% 0 in
08:39 74.7 °F 53.8 °F 30 in SO 3 mph 6 mph 48.2% 0 in
08:44 74.8 °F 55 °F 30 in SSO 3.6 mph 6 mph 50.3% 0 in
08:49 75 °F 55.4 °F 30 in OSO 3.4 mph 6 mph 50.5% 0 in
08:54 75.4 °F 55.4 °F 30 in OSO 2.9 mph 5 mph 49.9% 0 in
08:59 75.9 °F 55.2 °F 30 in SO 2.7 mph 5.8 mph 48.5% 0 in
09:04 76.6 °F 54.5 °F 30 in Oeste 2.4 mph 6 mph 46.6% 0 in
09:09 77.2 °F 54 °F 30 in SSO 2.3 mph 5.8 mph 44.5% 0 in
09:14 77.7 °F 53.4 °F 30 in SSO 2 mph 6.2 mph 43.1% 0 in
09:19 78.1 °F 53.1 °F 30 in SO 2.2 mph 6 mph 41.9% 0 in
09:24 78.4 °F 52.9 °F 30 in Oeste 3.1 mph 5 mph 41% 0 in
09:29 79 °F 53.2 °F 30 in OSO 2.9 mph 5.9 mph 40.9% 0 in
09:34 79.3 °F 53.4 °F 30 in Oeste 2.4 mph 7.4 mph 40.6% 0 in
09:39 79.5 °F 53.1 °F 30 in OSO 2.9 mph 8.1 mph 40% 0 in
09:44 79.5 °F 53.6 °F 30 in OSO 4.3 mph 8 mph 40.8% 0 in
09:49 79.7 °F 54 °F 30 in OSO 4.2 mph 7 mph 41% 0 in
09:54 80.1 °F 54.1 °F 30 in OSO 4 mph 7 mph 41% 0 in
09:59 80.4 °F 54.3 °F 30 in OSO 4 mph 6.9 mph 40.5% 0 in
10:04 81 °F 54.3 °F 30 in Oeste 4 mph 7 mph 40.1% 0 in
10:09 81.1 °F 54.5 °F 30 in ONO 3.8 mph 6 mph 40% 0 in
10:14 81.9 °F 54.7 °F 30 in OSO 3.1 mph 6.2 mph 39.3% 0 in
10:19 82.2 °F 54.3 °F 30 in SO 2.9 mph 6 mph 38.2% 0 in
10:24 82.8 °F 54.5 °F 30 in SO 2.4 mph 5 mph 38% 0 in
10:29 83.1 °F 54.5 °F 30 in SSO 2.4 mph 5.9 mph 37.6% 0 in
10:34 83.3 °F 54.1 °F 30 in SO 2.4 mph 9.2 mph 37% 0 in
10:39 83.3 °F 54.3 °F 30 in SSO 2.7 mph 9 mph 36.8% 0 in
10:44 83.8 °F 54 °F 30 in SSO 3.6 mph 6 mph 36% 0 in
10:49 84.2 °F 54 °F 30 in SE 3.3 mph 6 mph 35.4% 0 in
10:54 85.1 °F 53.8 °F 30 in ENE 2.4 mph 5.2 mph 34.4% 0 in
10:59 85.5 °F 54 °F 30 in SSE 2.4 mph 5 mph 34.1% 0 in
11:04 85.6 °F 53.4 °F 30 in SSO 2.4 mph 5.2 mph 33.3% 0 in
11:09 86 °F 53.6 °F 30 in ENE 2.5 mph 5.9 mph 33% 0 in
11:14 86.5 °F 53.4 °F 30 in NE 2.9 mph 6 mph 32.4% 0 in
11:19 86.7 °F 53.4 °F 30 in NE 2.9 mph 6 mph 32.2% 0 in
11:24 87.3 °F 53.8 °F 30 in North 3.1 mph 5 mph 32.1% 0 in
11:29 87.6 °F 53.6 °F 30 in NNE 2.9 mph 5.2 mph 31.4% 0 in
11:34 88.2 °F 53.8 °F 30 in NNE 2.4 mph 5.2 mph 31.1% 0 in
11:39 88.5 °F 54 °F 30 in NNO 2.4 mph 5.8 mph 30.9% 0 in
11:44 88.5 °F 53.6 °F 30 in ONO 2.4 mph 6 mph 30.6% 0 in
11:49 88.5 °F 54 °F 30 in ONO 2.7 mph 6 mph 31% 0 in
11:54 88.3 °F 54 °F 30 in Oeste 3.6 mph 6 mph 31% 0 in
11:59 88.7 °F 54.5 °F 30 in NNE 3.5 mph 6.9 mph 31.4% 0 in
12:04 89.2 °F 54.5 °F 30 in ENE 3.1 mph 7 mph 31% 0 in
12:09 90 °F 54.5 °F 30 in Este 3 mph 6.9 mph 30.3% 0 in
12:14 90.1 °F 54.7 °F 30 in Este 2.9 mph 7 mph 30.2% 0 in
12:19 90.3 °F 54.7 °F 30 in ENE 3 mph 6.9 mph 30% 0 in
12:24 90.9 °F 55.2 °F 30 in ENE 3.6 mph 11.2 mph 30% 0 in
12:29 91 °F 53.6 °F 30 in NE 4 mph 12 mph 28.2% 0 in
12:34 90.9 °F 53.8 °F 30 in NE 5.4 mph 12 mph 28.5% 0 in
12:39 90.9 °F 54.3 °F 30 in NE 5.6 mph 15.2 mph 29% 0 in
12:44 91 °F 54.3 °F 30 in ENE 6.2 mph 15 mph 29% 0 in
12:49 91 °F 54.9 °F 30 in NE 6.6 mph 15 mph 29.4% 0 in
12:54 91.4 °F 54.7 °F 30 in Este 8.1 mph 14 mph 29.2% 0 in
12:59 91.8 °F 54.9 °F 30 in NE 7.3 mph 8.1 mph 28.8% 0 in
13:04 91.9 °F 54.7 °F 30 in NE 5.4 mph 9.2 mph 28.6% 0 in
13:09 92.1 °F 54.9 °F 30 in North 5.2 mph 9 mph 28.5% 0 in
13:14 92.7 °F 53.8 °F 30 in Este 4.3 mph 8.1 mph 27.1% 0 in
13:19 93 °F 54.1 °F 30 in NE 4.5 mph 10.4 mph 27% 0 in
13:24 93 °F 54.5 °F 30 in NNE 5.2 mph 10.4 mph 27.4% 0 in
13:29 93.6 °F 54.1 °F 30 in NE 5.5 mph 13 mph 26.7% 0 in
13:34 93.7 °F 53.2 °F 30 in NE 6.2 mph 13 mph 25.7% 0 in
13:39 93.6 °F 52 °F 30 in NE 6.5 mph 14 mph 24.6% 0 in
13:44 93.9 °F 50.9 °F 30 in ENE 7.6 mph 15.2 mph 23.4% 0 in
13:49 93.9 °F 50 °F 30 in Este 7.7 mph 15.2 mph 22.6% 0 in
13:54 93.9 °F 48.6 °F 30 in Este 8.1 mph 17.3 mph 21.4% 0 in
13:59 94.1 °F 48.2 °F 30 in ENE 8.3 mph 17 mph 21% 0 in
14:04 94.5 °F 48.4 °F 30 in ENE 8.7 mph 16 mph 20.9% 0 in
14:09 94.6 °F 47.7 °F 30 in ENE 8.6 mph 17.3 mph 20.2% 0 in
14:14 94.8 °F 47.7 °F 30 in ENE 8.5 mph 17 mph 20% 0 in
14:19 94.8 °F 46.9 °F 30 in NE 8.1 mph 14.5 mph 19.7% 0 in
14:24 94.6 °F 47.3 °F 30 in NE 6.9 mph 16.3 mph 20% 0 in
14:29 94.5 °F 47.1 °F 30 in ENE 7.5 mph 16.1 mph 20% 0 in
14:34 94.5 °F 47.1 °F 30 in NE 9.7 mph 16 mph 19.9% 0 in
14:39 94.8 °F 47.1 °F 30 in NE 9.4 mph 17.5 mph 19.7% 0 in
14:44 94.5 °F 46.4 °F 30 in NE 8.7 mph 17.5 mph 19.4% 0 in
14:49 94.6 °F 47.3 °F 30 in NE 9.2 mph 19.2 mph 20% 0 in
14:54 94.6 °F 46.4 °F 30 in NE 10.7 mph 20 mph 19.3% 0 in
14:59 94.1 °F 45 °F 30 in NE 10.7 mph 20 mph 18.6% 0 in
15:04 94.3 °F 45.7 °F 30 in NE 10.7 mph 18.5 mph 19% 0 in
15:09 94.1 °F 46.8 °F 30 in NE 10.6 mph 19 mph 19.8% 0 in
15:14 94.5 °F 47.1 °F 30 in ENE 10.2 mph 18 mph 20% 0 in
15:19 94.6 °F 47.7 °F 30 in ENE 9.8 mph 17 mph 20.3% 0 in
15:24 94.5 °F 48 °F 30 in NE 8.5 mph 16.1 mph 20.7% 0 in
15:29 94.6 °F 47.1 °F 30 in NE 8.5 mph 16 mph 19.8% 0 in
15:34 94.5 °F 46.9 °F 30 in NE 8.7 mph 18.5 mph 19.9% 0 in
15:39 94.5 °F 47.7 °F 30 in ENE 9 mph 19 mph 20.4% 0 in
15:44 94.6 °F 48.4 °F 30 in NE 10 mph 17.5 mph 20.8% 0 in
15:49 94.6 °F 48.7 °F 30 in NE 9.7 mph 18.4 mph 21.2% 0 in
15:54 94.5 °F 48.7 °F 30 in ENE 8.7 mph 19.6 mph 21.2% 0 in
15:59 94.3 °F 50.5 °F 30 in Este 8.4 mph 20 mph 22.8% 0 in
16:04 94.3 °F 50.7 °F 30 in Este 7.6 mph 15.9 mph 23% 0 in
16:09 94.1 °F 50 °F 30 in ENE 7.9 mph 17.5 mph 22.5% 0 in
16:14 93.9 °F 50.4 °F 30 in ENE 8.7 mph 17 mph 22.9% 0 in
16:19 93.9 °F 50 °F 30 in ENE 8.4 mph 14 mph 22.6% 0 in
16:24 93.9 °F 50.7 °F 30 in NE 7.6 mph 18.4 mph 23.1% 0 in
16:29 93.9 °F 50.5 °F 30 in ENE 8.1 mph 18 mph 23.1% 0 in
16:34 93.9 °F 50.5 °F 30 in ENE 9.7 mph 18.4 mph 23% 0 in
16:39 93.9 °F 50.9 °F 30 in ENE 9.2 mph 18 mph 23.2% 0 in
16:44 93.9 °F 51.3 °F 30 in NE 7.6 mph 17.3 mph 23.8% 0 in
16:49 93.6 °F 50.9 °F 30 in ENE 8.1 mph 17 mph 23.5% 0 in
16:54 93.7 °F 51.4 °F 30 in ENE 10 mph 16.1 mph 23.9% 0 in
16:59 93.6 °F 51.3 °F 30 in NE 9.4 mph 16.1 mph 23.9% 0 in
17:04 93.7 °F 51.6 °F 30 in NE 8.1 mph 16.3 mph 24.2% 0 in
17:09 93.9 °F 52.7 °F 30 in ENE 8.1 mph 16 mph 24.9% 0 in
17:14 93.7 °F 51.8 °F 30 in ENE 8.1 mph 17.5 mph 24.4% 0 in
17:19 93.6 °F 51.4 °F 30 in ENE 8.3 mph 19 mph 24.2% 0 in
17:24 93.4 °F 51.6 °F 29.9 in ENE 8.7 mph 19 mph 24.4% 0 in
17:29 93.4 °F 51.1 °F 29.9 in ENE 8.9 mph 17.5 mph 23.9% 0 in
17:34 93.2 °F 50.9 °F 29.9 in NE 9.7 mph 19.2 mph 23.9% 0 in
17:39 93 °F 51.3 °F 29.9 in ENE 9.8 mph 20 mph 24.3% 0 in
17:44 92.8 °F 51.4 °F 29.9 in NE 10.2 mph 20 mph 24.7% 0 in
17:49 92.8 °F 51.4 °F 29.9 in ENE 9.9 mph 17 mph 24.6% 0 in
17:54 93 °F 51.3 °F 29.9 in ENE 8.7 mph 17.3 mph 24.4% 0 in
17:59 92.8 °F 50.9 °F 29.9 in NE 8.6 mph 17 mph 24.1% 0 in
18:04 93 °F 50.9 °F 29.9 in NE 8.5 mph 15.6 mph 24% 0 in
18:09 93 °F 51.1 °F 29.9 in NE 8.5 mph 16.3 mph 24.2% 0 in
18:14 92.7 °F 51.1 °F 29.9 in ENE 8.7 mph 16 mph 24.6% 0 in
18:19 92.5 °F 50.9 °F 29.9 in ENE 8.8 mph 15 mph 24.4% 0 in
18:24 92.5 °F 51.4 °F 29.9 in ENE 9.2 mph 15 mph 25% 0 in
18:29 92.5 °F 52 °F 29.9 in NE 8.9 mph 16.3 mph 25.4% 0 in
18:34 92.5 °F 52.7 °F 29.9 in NE 8.1 mph 16.1 mph 26% 0 in
18:39 92.7 °F 52.7 °F 29.9 in NE 8.1 mph 16 mph 26% 0 in
18:44 92.7 °F 52 °F 29.9 in NE 8.1 mph 16.1 mph 25.3% 0 in
18:49 92.5 °F 52.7 °F 29.9 in NE 8.2 mph 16.3 mph 26% 0 in
18:54 92.1 °F 52.3 °F 29.9 in NE 8.7 mph 16.1 mph 26% 0 in
18:59 91.9 °F 52.9 °F 29.9 in NE 9.1 mph 16.1 mph 26.7% 0 in
19:04 91.8 °F 53.6 °F 29.9 in NE 10 mph 16 mph 27.6% 0 in
19:09 91.6 °F 53.4 °F 29.9 in NE 9.7 mph 16 mph 27.5% 0 in
19:14 91.6 °F 54 °F 29.9 in NE 8.7 mph 15 mph 28% 0 in
19:19 91.4 °F 53.6 °F 29.9 in NE 8.6 mph 16.1 mph 28% 0 in
19:24 91.2 °F 53.1 °F 29.9 in NE 8.1 mph 16.3 mph 27.4% 0 in
19:29 91 °F 53.2 °F 29.9 in NE 8.4 mph 16 mph 27.8% 0 in
19:34 90.9 °F 53.8 °F 29.9 in NE 9.7 mph 15.6 mph 28.5% 0 in
19:39 90.7 °F 54.1 °F 29.9 in NE 9.4 mph 16.1 mph 29% 0 in
19:44 90.5 °F 53.8 °F 29.9 in NE 8.1 mph 16.1 mph 29% 0 in
19:49 90.1 °F 54.5 °F 29.9 in NE 8.4 mph 16 mph 30% 0 in
19:54 90.1 °F 54.5 °F 29.9 in NE 9.2 mph 13.7 mph 30.1% 0 in
19:59 90 °F 54.9 °F 29.9 in ENE 8.6 mph 14 mph 30.6% 0 in
20:04 89.8 °F 55 °F 29.9 in ENE 7.4 mph 13 mph 31% 0 in
20:09 89.4 °F 55.6 °F 29.9 in ENE 7.1 mph 13 mph 31.9% 0 in
20:14 89.4 °F 55.9 °F 29.9 in ENE 6.4 mph 13 mph 32.3% 0 in
20:19 89.2 °F 56.3 °F 29.9 in Este 6.4 mph 12 mph 33% 0 in
20:24 89.1 °F 56.1 °F 29.9 in ENE 6.4 mph 12 mph 33% 0 in
20:29 89.1 °F 56.1 °F 29.9 in ENE 5.9 mph 8.5 mph 33% 0 in
20:34 88.9 °F 56.1 °F 29.9 in ENE 4.3 mph 10.7 mph 33% 0 in
20:39 88.7 °F 55.9 °F 29.9 in ENE 4.7 mph 11.8 mph 33% 0 in
20:44 88.3 °F 55.8 °F 29.9 in ENE 5.9 mph 12 mph 33.3% 0 in
20:49 88.2 °F 56.3 °F 30 in ENE 5.7 mph 9 mph 34% 0 in
20:54 88.2 °F 56.1 °F 30 in ENE 5.2 mph 9.2 mph 34% 0 in
20:59 87.8 °F 55.9 °F 30 in ENE 5 mph 9 mph 34% 0 in
21:04 87.6 °F 55.8 °F 30 in NE 4.7 mph 7.4 mph 34% 0 in
21:09 87.4 °F 55.6 °F 30 in NE 4.6 mph 7.4 mph 34% 0 in
21:14 87.3 °F 55.6 °F 30 in NE 4.3 mph 8.5 mph 34.2% 0 in
21:19 86.9 °F 55.9 °F 30 in NE 4.5 mph 9 mph 35% 0 in
21:24 86.5 °F 56.3 °F 30 in NE 5.2 mph 8.1 mph 35.7% 0 in
21:29 86.4 °F 56.5 °F 30 in NE 5.2 mph 8 mph 36.4% 0 in
21:34 85.8 °F 56.7 °F 30 in NE 5.4 mph 9.2 mph 37.3% 0 in
21:39 85.6 °F 57 °F 30 in NE 5.4 mph 9 mph 38% 0 in
21:44 85.5 °F 57.6 °F 30 in NE 5.4 mph 9.2 mph 38.8% 0 in
21:49 85.1 °F 57.9 °F 30 in NE 5.4 mph 9 mph 39.9% 0 in
21:54 84.7 °F 57.9 °F 30 in NE 5.4 mph 8.1 mph 40.2% 0 in
21:59 84.6 °F 58.1 °F 30 in NE 5.3 mph 8.1 mph 41% 0 in
22:04 84 °F 58.1 °F 30 in NE 5.2 mph 8.1 mph 41.5% 0 in
22:09 83.8 °F 58.3 °F 30 in NE 5.2 mph 7 mph 42% 0 in
22:14 83.7 °F 58.6 °F 30 in NNE 5.2 mph 7 mph 42.8% 0 in
22:19 83.3 °F 58.6 °F 30 in NE 5 mph 7 mph 43.3% 0 in
22:24 82.9 °F 59 °F 30 in NE 4.3 mph 8.1 mph 44.4% 0 in
22:29 82.8 °F 59.4 °F 30 in NE 4.4 mph 8.1 mph 45.4% 0 in
22:34 82.4 °F 59.7 °F 30 in NE 4.7 mph 8 mph 46.2% 0 in
22:39 82.2 °F 59.9 °F 30 in NE 4.5 mph 7 mph 47% 0 in
22:44 82 °F 59.9 °F 30 in NE 3.6 mph 6 mph 47.2% 0 in
22:49 81.9 °F 60.1 °F 30 in NE 3.7 mph 6.9 mph 48% 0 in
22:54 81.7 °F 60.1 °F 30 in NE 4 mph 7 mph 48% 0 in
22:59 81.5 °F 59.9 °F 30 in NE 4 mph 7 mph 48% 0 in
23:04 81.5 °F 59.9 °F 30 in NE 4 mph 6.9 mph 48% 0 in
23:09 81.3 °F 60.1 °F 30 in NE 4.3 mph 8.1 mph 48.5% 0 in
23:14 81.1 °F 60.3 °F 30 in NE 5.2 mph 8 mph 49% 0 in
23:19 81.1 °F 60.3 °F 30 in NE 5.2 mph 8 mph 49% 0 in
23:24 81.1 °F 60.3 °F 30 in NE 4.1 mph 5.8 mph 49% 0 in
23:29 81.1 °F 60.3 °F 30 in NE 4 mph 6.9 mph 49% 0 in
23:34 81.1 °F 60.3 °F 30 in NE 4 mph 7 mph 49.1% 0 in
23:39 81 °F 60.6 °F 30 in NE 3.9 mph 6.2 mph 50% 0 in
23:44 81 °F 60.6 °F 30 in NE 3.6 mph 6.4 mph 50% 0 in
23:49 81 °F 60.4 °F 30 in NE 3.6 mph 6.2 mph 50% 0 in
23:54 80.8 °F 60.4 °F 30 in NE 3.6 mph 6.9 mph 50% 0 in
23:59 80.4 °F 60.6 °F 30 in NE 3.7 mph 7 mph 50.9% 0 in
Murcia-Puente Tocinos, España
Compliments of Weather Underground - 3 mb

La estación de MeteoMurcia.com, publica sus datos en los siguientes proyectos:

Weather Underground PWS IMURCIAP2 Meteoclimatic www.awekas.at

W3Counter
Web Analytics